EDDHEKCH

Guest
Details From EDDH - Hamburg
To EKCH - Kastrup
Flight Number -
Tags Generated
Created
Modified
Stats Distance 150 nm / 278 km
Max Altitude 0 ft / 0 m
Waypoints 2
Social Downloads 8
Likes 0
Share VATSIM

Download

Looking for another format? Having issues loading an existing format? Contact us
Advertisement - Login to hide

Notes

Generated

Route

EDDH EKCH

ID Type Via Altitude Latitude Longitude Leg Dist Tot Dist Heading (true) Name
O EDDH APT - 0 ft / 0 m 53.65441˚ 9.97521˚ - 0 nm - -
O EKCH APT - 0 ft / 0 m 55.62761˚ 12.62973˚ 150 nm 150 nm 37° / 39° -

Altitude Profile

Advertisement - Login to hide

EDDH

Details ICAO EDDH (HAM)
Name Hamburg
Region Germany - Civil
Timezone Europe/Berlin (UTC+2.0)
Stats Elevation 53 ft / 16 m (AMSL)
Location 53.633665° 9.985235°
Runways 2
Magnetic Variation 2.846° E

METAR

EDDH 201020Z 10011KT 060V130 CAVOK 20/01 Q1026 NOSIG

Decode

TAF

TAF AMD EDDH 200807Z 2008/2112 08012KT CAVOK BECMG 2017/2019 08006KT BECMG 2108/2110 11011KT TEMPO 2110/2112 11015G25KT

Decode

Departure Runways

ID Width Length Bearing (true) Bearing (mag) Surface Threshold Offset Overrun Length
05 151 ft / 46 m 10,647 ft / 3,245 m 50.18° 47.33° Asphalt 978 ft / 298 m 194 ft / 59 m
15 151 ft / 46 m 12,013 ft / 3,662 m 152.89° 150.04° Asphalt 0 ft / 0 m 194 ft / 59 m
23 151 ft / 46 m 10,647 ft / 3,245 m 230.22° 227.37° Asphalt 509 ft / 155 m 240 ft / 73 m
33 151 ft / 46 m 12,013 ft / 3,662 m 332.91° 330.06° Asphalt 1,463 ft / 446 m 164 ft / 50 m

EKCH

Details ICAO EKCH (CPH)
Name Kastrup
Region Denmark / Faroe Islands
Timezone Europe/Copenhagen (UTC+2.0)
Stats Elevation 17 ft / 5 m (AMSL)
Location 55.612915° 12.640961°
Runways 3
Magnetic Variation 3.787° E

METAR

EKCH 201020Z 21003KT CAVOK 18/08 Q1028 NOSIG

Decode

TAF

TAF EKCH 192302Z 2000/2024 18005KT CAVOK= TAF EKBI 192302Z 2000/2024 VRB03KT CAVOK PROB40 2000/2005 4000 MIFG BR BECMG 2006/2008 16010KT

Decode

Destination Runways

ID Width Length Bearing (true) Bearing (mag) Surface Threshold Offset Overrun Length
04L 148 ft / 45 m 11,848 ft / 3,611 m 41.15° 37.36° Asphalt 0 ft / 0 m 0 ft / 0 m
04R 148 ft / 45 m 10,814 ft / 3,296 m 41.15° 37.36° Asphalt 0 ft / 0 m 0 ft / 0 m
12 148 ft / 45 m 10,047 ft / 3,063 m 123.21° 119.42° Asphalt 2,313 ft / 705 m 0 ft / 0 m
22L 148 ft / 45 m 10,814 ft / 3,296 m 221.17° 217.38° Asphalt 0 ft / 0 m 0 ft / 0 m
22R 148 ft / 45 m 11,848 ft / 3,611 m 221.18° 217.39° Asphalt 2,018 ft / 615 m 0 ft / 0 m
30 148 ft / 45 m 10,047 ft / 3,063 m 303.25° 299.46° Asphalt 886 ft / 270 m 0 ft / 0 m

Approach Navaids

Runway Type Ident Frequency Range Bearing (true) Bearing (mag) Slope Elevation
04L Localiser CH 110.50 MHz 18 nm / 33 km 41.16° 37.37° - 17 ft / 5 m (AMSL)
04L Glidescope CH 110.50 MHz 10 nm / 19 km 41.16° 37.37° 3.00° 17 ft / 5 m (AMSL)
04L DME CH 110.50 MHz 18 nm / 33 km - - - 14 ft / 4 m (AMSL)
04R Localiser NE 109.30 MHz 18 nm / 33 km 41.18° 37.39° - 17 ft / 5 m (AMSL)
04R Glidescope NE 109.30 MHz 10 nm / 19 km 41.16° 37.37° 3.00° 17 ft / 5 m (AMSL)
12 Localiser KA 109.90 MHz 18 nm / 33 km 123.25° 119.46° - 17 ft / 5 m (AMSL)
12 Glidescope KA 109.90 MHz 10 nm / 19 km 123.23° 119.44° 3.00° 17 ft / 5 m (AMSL)
12 DME KA 109.90 MHz 18 nm / 33 km - - - 14 ft / 4 m (AMSL)
22L Localiser OXS 109.50 MHz 18 nm / 33 km 221.14° 217.35° - 17 ft / 5 m (AMSL)
22L Glidescope OXS 109.50 MHz 10 nm / 19 km 221.16° 217.37° 3.00° 17 ft / 5 m (AMSL)
22L DME OXS 109.50 MHz 18 nm / 33 km - - - 7 ft / 2 m (AMSL)
22R Localiser KLK 110.90 MHz 18 nm / 33 km 221.14° 217.36° - 17 ft / 5 m (AMSL)
22R Glidescope KLK 110.90 MHz 10 nm / 19 km 221.16° 217.37° 3.00° 17 ft / 5 m (AMSL)
22R DME KLK 110.90 MHz 18 nm / 33 km - - - 14 ft / 4 m (AMSL)
30 Localiser OY 108.90 MHz 18 nm / 33 km 303.23° 299.44° - 17 ft / 5 m (AMSL)
30 Glidescope OY 108.90 MHz 10 nm / 19 km 303.23° 299.44° 3.00° 17 ft / 5 m (AMSL)
30 DME OY 108.90 MHz 18 nm / 33 km - - - 9 ft / 3 m (AMSL)

Popular Alternatives